Time;durP1;ratioP1;P1;durP2;ratioP2;P2;SDS_P1;SDS_P2;PMS_P1;PMS_P2;Temp;Humidity;BMP_temperature;BMP_pressure;BME280_temperature;BME280_humidity;BME280_pressure;Samples;Min_cycle;Max_cycle;Signal;HPM_P1;HPM_P2
2022/05/25 00:01:37;;;;;;;0.50;0.40;;;11.40;99.90;;;;;;5032107;28;20198;-80
2022/05/25 00:04:06;;;;;;;0.50;0.40;;;11.40;99.90;;;;;;5032786;28;20250;-78
2022/05/25 00:06:33;;;;;;;0.50;0.40;;;11.40;99.90;;;;;;5032753;28;20209;-79
2022/05/25 00:09:00;;;;;;;0.50;0.40;;;11.30;99.90;;;;;;5032095;28;20194;-79
2022/05/25 00:11:28;;;;;;;0.50;0.40;;;11.30;99.90;;;;;;5032431;28;20199;-78
2022/05/25 00:13:55;;;;;;;0.50;0.40;;;11.30;99.90;;;;;;5032641;28;20195;-80
2022/05/25 00:16:21;;;;;;;0.50;0.40;;;11.30;99.90;;;;;;5032745;28;20203;-78
2022/05/25 00:21:32;;;;;;;0.60;0.52;;;11.20;99.90;;;;;;5032407;28;20197;-79
2022/05/25 00:23:59;;;;;;;0.50;0.40;;;11.20;99.90;;;;;;5032137;28;20206;-78
2022/05/25 00:26:27;;;;;;;0.50;0.40;;;11.20;99.90;;;;;;5032631;28;20702;-79
2022/05/25 00:28:54;;;;;;;0.50;0.40;;;11.20;99.90;;;;;;5035481;28;20197;-79
2022/05/25 00:31:21;;;;;;;0.50;0.40;;;11.10;99.90;;;;;;5036063;28;20229;-79
2022/05/25 00:33:47;;;;;;;0.50;0.40;;;11.10;99.90;;;;;;5036436;28;20222;-79
2022/05/25 00:36:14;;;;;;;0.50;0.40;;;11.10;99.90;;;;;;5036073;28;20667;-79
2022/05/25 00:38:41;;;;;;;0.50;0.40;;;11.10;99.90;;;;;;5035138;28;20227;-78
2022/05/25 00:41:07;;;;;;;0.50;0.40;;;11.00;99.90;;;;;;5036061;28;20453;-79
2022/05/25 00:43:35;;;;;;;0.50;0.40;;;11.00;99.90;;;;;;5036031;28;20214;-79
2022/05/25 00:46:06;;;;;;;0.50;0.40;;;11.10;99.90;;;;;;5035415;28;20709;-78
2022/05/25 00:48:36;;;;;;;0.50;0.40;;;11.10;99.90;;;;;;5035290;28;20720;-79
2022/05/25 00:51:16;;;;;;;0.50;0.40;;;11.20;99.90;;;;;;5035862;28;20188;-79
2022/05/25 00:53:46;;;;;;;0.50;0.40;;;11.20;99.90;;;;;;5035591;28;20179;-79
2022/05/25 00:56:16;;;;;;;0.50;0.40;;;11.20;99.90;;;;;;5036340;28;20206;-79
2022/05/25 00:58:49;;;;;;;0.50;0.40;;;11.20;99.90;;;;;;5035238;28;20692;-79
2022/05/25 01:01:16;;;;;;;0.50;0.40;;;11.20;99.90;;;;;;5034702;28;20183;-79
2022/05/25 01:03:42;;;;;;;0.50;0.40;;;11.10;99.90;;;;;;5035449;28;20205;-79
2022/05/25 01:06:17;;;;;;;0.50;0.40;;;11.10;99.90;;;;;;5035129;28;20222;-79
2022/05/25 01:08:53;;;;;;;0.50;0.40;;;11.10;99.90;;;;;;5035181;28;20215;-79
2022/05/25 01:11:34;;;;;;;0.50;0.40;;;11.00;99.90;;;;;;5035213;28;20540;-79
2022/05/25 01:14:15;;;;;;;0.50;0.40;;;10.90;99.90;;;;;;5035426;28;20194;-79
2022/05/25 01:16:49;;;;;;;0.50;0.40;;;10.90;99.90;;;;;;5034965;28;20241;-79
2022/05/25 01:19:31;;;;;;;0.52;0.52;;;10.90;99.90;;;;;;5035257;28;20183;-79
2022/05/25 01:22:06;;;;;;;0.50;0.50;;;10.90;99.90;;;;;;5035010;28;20577;-78
2022/05/25 01:24:44;;;;;;;0.50;0.40;;;10.90;99.90;;;;;;5035339;28;20230;-76
2022/05/25 01:27:34;;;;;;;0.50;0.40;;;10.90;99.90;;;;;;5034682;28;20223;-79
2022/05/25 01:30:16;;;;;;;0.50;0.40;;;11.00;99.90;;;;;;5034831;28;20629;-80
2022/05/25 01:32:59;;;;;;;0.50;0.40;;;10.90;99.90;;;;;;5034774;28;20194;-79
2022/05/25 01:35:36;;;;;;;0.50;0.40;;;10.90;99.90;;;;;;5034951;28;20198;-79
2022/05/25 01:38:13;;;;;;;0.50;0.40;;;10.90;99.90;;;;;;5034232;28;20234;-79
2022/05/25 01:40:45;;;;;;;0.50;0.40;;;10.90;99.90;;;;;;5033584;28;20719;-79
2022/05/25 01:43:16;;;;;;;0.50;0.40;;;10.80;99.90;;;;;;5034835;28;20679;-79
2022/05/25 01:45:48;;;;;;;0.50;0.40;;;10.80;99.90;;;;;;5034836;28;20221;-79
2022/05/25 01:48:17;;;;;;;0.50;0.40;;;10.90;99.90;;;;;;5034227;28;20215;-78
2022/05/25 01:50:48;;;;;;;0.50;0.40;;;10.80;99.90;;;;;;5034570;28;20206;-79
2022/05/25 01:53:18;;;;;;;0.50;0.50;;;10.80;99.90;;;;;;5034286;28;20195;-79
2022/05/25 01:55:48;;;;;;;0.50;0.40;;;10.80;99.90;;;;;;5033946;28;20196;-79
2022/05/25 01:58:18;;;;;;;0.50;0.40;;;10.80;99.90;;;;;;5033826;28;20580;-76
2022/05/25 02:00:48;;;;;;;0.50;0.40;;;10.80;99.90;;;;;;5034053;28;20263;-78
2022/05/25 02:06:27;;;;;;;0.50;0.40;;;10.70;99.90;;;;;;5034256;28;20584;-79
2022/05/25 02:09:17;;;;;;;0.50;0.40;;;10.70;99.90;;;;;;5033354;28;20202;-79
2022/05/25 02:11:47;;;;;;;0.50;0.45;;;10.70;99.90;;;;;;5031287;28;20205;-79
2022/05/25 02:14:26;;;;;;;1.00;0.60;;;10.70;99.90;;;;;;5034429;28;20206;-79
2022/05/25 02:17:01;;;;;;;0.50;0.40;;;10.70;99.90;;;;;;5034057;28;20215;-79
2022/05/25 02:19:37;;;;;;;0.50;0.40;;;10.70;99.90;;;;;;5033649;28;20194;-79
2022/05/25 02:22:09;;;;;;;0.50;0.40;;;10.70;99.90;;;;;;5033298;28;20611;-79
2022/05/25 02:24:42;;;;;;;2.05;0.85;;;10.60;99.90;;;;;;5034194;28;20299;-78
2022/05/25 02:27:16;;;;;;;0.50;0.40;;;10.60;99.90;;;;;;5033579;28;20216;-80
2022/05/25 02:29:46;;;;;;;0.50;0.45;;;10.60;99.90;;;;;;5033971;28;20179;-79
2022/05/25 02:32:18;;;;;;;0.50;0.40;;;10.60;99.90;;;;;;5034167;28;20198;-79
2022/05/25 02:34:48;;;;;;;0.50;0.40;;;10.50;99.90;;;;;;5033516;28;20179;-79
2022/05/25 02:37:16;;;;;;;0.52;0.52;;;10.50;99.90;;;;;;5033017;28;20578;-78
2022/05/25 02:39:44;;;;;;;0.50;0.40;;;10.50;99.90;;;;;;5033391;28;20202;-79
2022/05/25 02:42:14;;;;;;;0.50;0.40;;;10.50;99.90;;;;;;5033446;28;20203;-79
2022/05/25 02:44:41;;;;;;;0.95;0.95;;;10.50;99.90;;;;;;5033353;28;20276;-79
2022/05/25 02:47:08;;;;;;;3.25;3.05;;;10.40;99.90;;;;;;5033040;28;20218;-78
2022/05/25 02:49:36;;;;;;;0.50;0.40;;;10.50;99.90;;;;;;5032856;28;20293;-78
2022/05/25 02:52:04;;;;;;;0.60;0.60;;;10.50;99.90;;;;;;5032803;28;20201;-78
2022/05/25 02:54:30;;;;;;;0.50;0.40;;;10.50;99.90;;;;;;5032974;28;20675;-79
2022/05/25 02:56:57;;;;;;;0.50;0.40;;;10.60;99.90;;;;;;5032840;28;20215;-77
2022/05/25 02:59:24;;;;;;;0.50;0.40;;;10.50;99.90;;;;;;5032616;28;20604;-79
2022/05/25 03:01:50;;;;;;;0.50;0.40;;;10.50;99.90;;;;;;5032516;28;20205;-79
2022/05/25 03:04:17;;;;;;;0.50;0.40;;;10.40;99.90;;;;;;5033202;28;20198;-79
2022/05/25 03:06:45;;;;;;;0.50;0.40;;;10.40;99.90;;;;;;5032739;28;20218;-79
2022/05/25 03:09:12;;;;;;;0.50;0.40;;;10.40;99.90;;;;;;5032807;28;20690;-80
2022/05/25 03:11:39;;;;;;;1.17;1.08;;;10.40;99.90;;;;;;5033672;28;20201;-78
2022/05/25 03:14:06;;;;;;;0.50;0.40;;;10.40;99.90;;;;;;5032667;28;20199;-79
2022/05/25 03:16:34;;;;;;;0.50;0.50;;;10.40;99.90;;;;;;5033009;28;20200;-78
2022/05/25 03:19:01;;;;;;;0.50;0.40;;;10.40;99.90;;;;;;5032981;28;20584;-78
2022/05/25 03:21:27;;;;;;;0.50;0.40;;;10.40;99.90;;;;;;5033148;28;20203;-78
2022/05/25 03:23:55;;;;;;;0.50;0.40;;;10.40;99.90;;;;;;5032931;28;20600;-80
2022/05/25 03:26:22;;;;;;;1.50;1.50;;;10.40;99.90;;;;;;5034035;28;20214;-78
2022/05/25 03:28:49;;;;;;;0.50;0.40;;;10.40;99.90;;;;;;5032405;28;20199;-79
2022/05/25 03:31:16;;;;;;;0.50;0.40;;;10.40;99.90;;;;;;5032386;28;20200;-78
2022/05/25 03:33:43;;;;;;;0.85;0.82;;;10.40;99.90;;;;;;5032706;28;20199;-78
2022/05/25 03:36:09;;;;;;;0.50;0.40;;;10.40;99.90;;;;;;5032608;28;20724;-78
2022/05/25 03:38:36;;;;;;;0.50;0.40;;;10.40;99.90;;;;;;5031916;28;20233;-78
2022/05/25 03:41:04;;;;;;;3.15;2.95;;;10.40;99.90;;;;;;5031500;28;20707;-78
2022/05/25 03:43:34;;;;;;;2.35;1.10;;;10.40;99.90;;;;;;5032973;28;20892;-79
2022/05/25 03:46:00;;;;;;;0.95;0.95;;;10.40;99.90;;;;;;5032367;28;20219;-78
2022/05/25 03:48:27;;;;;;;0.50;0.40;;;10.50;99.90;;;;;;5031634;28;20218;-78
2022/05/25 03:50:54;;;;;;;0.50;0.40;;;10.50;99.90;;;;;;5032424;28;20199;-79
2022/05/25 03:53:21;;;;;;;0.50;0.40;;;10.50;99.90;;;;;;5031865;28;20206;-78
2022/05/25 03:55:48;;;;;;;1.23;0.93;;;10.50;99.90;;;;;;5032033;28;20202;-78
2022/05/25 03:58:16;;;;;;;0.50;0.40;;;10.50;99.90;;;;;;5031967;28;20648;-78
2022/05/25 04:00:44;;;;;;;0.50;0.40;;;10.50;99.90;;;;;;5031615;28;20208;-79
2022/05/25 04:03:13;;;;;;;0.65;0.63;;;10.50;99.90;;;;;;5036126;28;20297;-79
2022/05/25 04:05:40;;;;;;;0.50;0.40;;;10.60;99.90;;;;;;5038158;28;20217;-79
2022/05/25 04:08:07;;;;;;;0.95;0.95;;;10.60;99.90;;;;;;5038182;28;20221;-79
2022/05/25 04:10:34;;;;;;;0.50;0.40;;;10.60;99.90;;;;;;5038021;28;20198;-79
2022/05/25 04:13:01;;;;;;;0.50;0.40;;;10.60;99.90;;;;;;5038732;28;20205;-78
2022/05/25 04:15:31;;;;;;;0.50;0.40;;;10.60;99.90;;;;;;5038454;28;20564;-79
2022/05/25 04:17:58;;;;;;;0.50;0.40;;;10.60;99.90;;;;;;5037457;28;20221;-78
2022/05/25 04:20:27;;;;;;;0.50;0.40;;;10.70;99.90;;;;;;5038709;28;20671;-78
2022/05/25 04:22:54;;;;;;;1.85;1.73;;;10.70;99.90;;;;;;5038165;28;20227;-79
2022/05/25 04:25:23;;;;;;;1.15;1.15;;;10.70;99.90;;;;;;5038563;28;20219;-78
2022/05/25 04:27:51;;;;;;;0.75;0.75;;;10.80;99.90;;;;;;5037618;28;20218;-78
2022/05/25 04:30:21;;;;;;;1.00;0.93;;;10.80;99.90;;;;;;5037822;28;20225;-79
2022/05/25 04:32:49;;;;;;;0.50;0.50;;;10.80;99.90;;;;;;5037746;28;20206;-78
2022/05/25 04:35:16;;;;;;;1.02;1.02;;;10.80;99.90;;;;;;5038700;28;20205;-78
2022/05/25 04:37:56;;;;;;;0.98;0.70;;;10.90;99.90;;;;;;5037336;28;20635;-78
2022/05/25 04:40:26;;;;;;;0.50;0.40;;;10.80;99.90;;;;;;5094106;23;20938;-84
2022/05/25 04:42:54;;;;;;;0.60;0.50;;;10.90;99.90;;;;;;5026577;28;20211;-83
2022/05/25 04:45:21;;;;;;;0.50;0.45;;;10.90;99.90;;;;;;5029375;28;20205;-84
2022/05/25 04:47:49;;;;;;;1.48;1.38;;;11.00;99.90;;;;;;5032454;28;20217;-82
2022/05/25 04:50:19;;;;;;;0.85;0.82;;;11.00;99.90;;;;;;5040174;28;20245;-83
2022/05/25 04:52:46;;;;;;;0.50;0.50;;;11.10;99.90;;;;;;5046745;28;20201;-82
2022/05/25 04:57:19;;;;;;;1.17;1.17;;;11.20;99.90;;;;;;5045086;28;20213;-84
2022/05/25 04:58:00;;;;;;;1.35;1.35;;;11.40;99.90;;;;;;5046098;28;20222;-84
2022/05/25 05:00:27;;;;;;;0.63;0.63;;;11.50;99.90;;;;;;5043960;28;20230;-83
2022/05/25 05:02:55;;;;;;;0.65;0.65;;;11.60;99.90;;;;;;5049416;28;20210;-82
2022/05/25 05:05:22;;;;;;;0.65;0.50;;;11.60;99.90;;;;;;5047534;28;20199;-84
2022/05/25 05:07:49;;;;;;;3.10;2.35;;;11.70;99.90;;;;;;5048557;28;20220;-83
2022/05/25 05:10:16;;;;;;;0.50;0.40;;;11.70;99.90;;;;;;5047127;28;20278;-83
2022/05/25 05:12:42;;;;;;;1.02;1.02;;;11.70;99.90;;;;;;5047090;28;20687;-83
2022/05/25 05:15:10;;;;;;;1.45;1.35;;;11.70;99.90;;;;;;5041842;28;20191;-82
2022/05/25 05:17:37;;;;;;;1.08;1.08;;;11.60;99.90;;;;;;5042596;28;20195;-83
2022/05/25 05:20:07;;;;;;;0.50;0.50;;;11.60;99.90;;;;;;5043316;28;20227;-83
2022/05/25 05:22:34;;;;;;;0.60;0.57;;;11.60;99.90;;;;;;5043279;28;20194;-83
2022/05/25 05:25:01;;;;;;;1.08;0.95;;;11.60;99.90;;;;;;5042769;28;20211;-83
2022/05/25 05:27:28;;;;;;;0.90;0.90;;;11.70;99.90;;;;;;5043516;28;20218;-83
2022/05/25 05:29:57;;;;;;;0.77;0.77;;;11.70;99.90;;;;;;5042509;28;20211;-84
2022/05/25 05:32:25;;;;;;;1.20;1.20;;;11.70;99.90;;;;;;5043810;28;20203;-84
2022/05/25 05:34:52;;;;;;;0.50;0.40;;;11.70;99.90;;;;;;5045110;28;20202;-84
2022/05/25 05:37:24;;;;;;;1.50;1.40;;;11.80;99.90;;;;;;5044117;28;20210;-82
2022/05/25 05:39:55;;;;;;;1.88;1.77;;;11.90;99.90;;;;;;5042448;28;20179;-80
2022/05/25 05:42:23;;;;;;;0.50;0.40;;;11.90;99.90;;;;;;5044911;28;20199;-85
2022/05/25 05:44:54;;;;;;;0.50;0.40;;;12.00;99.90;;;;;;5045819;28;20274;-85
2022/05/25 05:47:26;;;;;;;0.70;0.70;;;12.10;99.90;;;;;;5043230;28;20223;-84
2022/05/25 05:49:53;;;;;;;1.17;1.08;;;12.20;99.90;;;;;;5044847;28;20229;-83
2022/05/25 05:52:22;;;;;;;0.82;0.60;;;12.20;99.90;;;;;;5045975;28;20211;-84
2022/05/25 05:54:49;;;;;;;0.50;0.40;;;12.30;99.90;;;;;;5042630;28;20199;-83
2022/05/25 05:57:16;;;;;;;0.50;0.40;;;12.40;99.90;;;;;;5041128;28;20198;-81
2022/05/25 05:59:42;;;;;;;1.17;1.08;;;12.50;99.90;;;;;;5042918;28;20445;-83
2022/05/25 06:02:09;;;;;;;0.50;0.40;;;12.60;99.90;;;;;;5045072;28;20218;-84
2022/05/25 06:04:36;;;;;;;1.90;1.70;;;12.70;99.90;;;;;;5043595;28;20203;-83
2022/05/25 06:07:04;;;;;;;2.75;1.55;;;12.70;99.90;;;;;;5044113;28;20470;-84
2022/05/25 06:09:32;;;;;;;0.60;0.60;;;12.90;99.90;;;;;;5043434;28;20270;-84
2022/05/25 06:11:59;;;;;;;1.27;0.93;;;13.60;99.90;;;;;;5042936;28;20214;-81
2022/05/25 06:14:26;;;;;;;2.30;1.70;;;15.10;99.90;;;;;;5033611;28;20446;-84
2022/05/25 06:19:38;;;;;;;0.50;0.40;;;16.80;99.90;;;;;;5024999;28;20453;-84
2022/05/25 06:22:08;;;;;;;0.70;0.60;;;18.30;99.90;;;;;;5024888;28;20455;-85
2022/05/25 06:24:39;;;;;;;0.90;0.67;;;18.30;99.90;;;;;;5022820;28;20479;-82
2022/05/25 06:27:08;;;;;;;0.60;0.50;;;18.80;99.90;;;;;;5023388;28;20482;-82
2022/05/25 06:29:36;;;;;;;0.50;0.40;;;19.70;99.90;;;;;;5042180;28;20537;-82
2022/05/25 06:32:04;;;;;;;0.50;0.30;;;20.30;99.90;;;;;;5044209;28;20488;-84
2022/05/25 06:34:31;;;;;;;0.70;0.60;;;21.10;99.90;;;;;;5043335;28;20446;-82
2022/05/25 06:36:57;;;;;;;0.50;0.30;;;21.40;99.90;;;;;;5043254;28;20447;-84
2022/05/25 06:39:24;;;;;;;0.50;0.47;;;22.10;99.90;;;;;;5041680;28;20434;-83
2022/05/25 06:41:52;;;;;;;0.50;0.33;;;21.70;99.90;;;;;;5040900;28;20836;-83
2022/05/25 06:44:19;;;;;;;0.80;0.50;;;22.50;99.90;;;;;;5041168;28;20442;-83
2022/05/25 06:46:47;;;;;;;0.50;0.40;;;22.10;99.90;;;;;;5042050;28;20470;-83
2022/05/25 06:49:15;;;;;;;0.60;0.40;;;21.50;99.90;;;;;;5041506;28;20923;-83
2022/05/25 06:51:42;;;;;;;1.70;1.53;;;22.00;99.90;;;;;;5040024;28;20458;-82
2022/05/25 06:54:08;;;;;;;0.60;0.50;;;21.60;99.90;;;;;;5041390;28;20450;-81
2022/05/25 06:56:35;;;;;;;2.03;1.33;;;21.20;99.90;;;;;;5040787;28;20446;-81
2022/05/25 06:59:03;;;;;;;0.50;0.50;;;20.80;99.90;;;;;;5039543;28;20477;-82
2022/05/25 07:01:30;;;;;;;2.70;1.67;;;20.90;99.90;;;;;;5037770;28;20460;-82
2022/05/25 07:03:57;;;;;;;0.50;0.40;;;21.80;99.90;;;;;;5039581;28;20430;-83
2022/05/25 07:06:25;;;;;;;5.23;1.67;;;22.70;97.20;;;;;;5038785;28;20486;-83
2022/05/25 07:08:53;;;;;;;0.60;0.57;;;21.90;97.30;;;;;;5052749;28;20445;-82
2022/05/25 07:11:20;;;;;;;1.43;1.33;;;22.70;95.60;;;;;;5050720;28;20454;-83
2022/05/25 07:13:47;;;;;;;0.50;0.40;;;22.80;94.20;;;;;;5041559;28;20803;-84
2022/05/25 07:16:18;;;;;;;0.60;0.50;;;22.70;90.70;;;;;;5040135;28;20525;-83
2022/05/25 07:18:46;;;;;;;1.57;0.40;;;21.60;91.20;;;;;;5041016;28;20624;-84
2022/05/25 07:21:16;;;;;;;1.07;1.07;;;21.70;94.10;;;;;;5043459;28;20458;-84
2022/05/25 07:23:44;;;;;;;1.50;1.40;;;21.40;94.90;;;;;;5046257;28;20419;-83
2022/05/25 07:26:11;;;;;;;0.50;0.40;;;21.30;92.90;;;;;;5043661;28;20894;-83
2022/05/25 07:28:40;;;;;;;10.70;3.23;;;21.30;96.60;;;;;;5040182;28;20948;-81
2022/05/25 07:31:10;;;;;;;0.50;0.30;;;22.50;92.90;;;;;;5040011;28;20523;-83
2022/05/25 07:33:40;;;;;;;4.10;0.80;;;22.80;88.80;;;;;;5039679;28;20549;-82
2022/05/25 07:36:10;;;;;;;2.30;0.73;;;23.90;86.50;;;;;;5039305;28;20427;-83
2022/05/25 07:38:42;;;;;;;0.50;0.40;;;23.30;78.50;;;;;;5037946;28;20446;-81
2022/05/25 07:41:10;;;;;;;0.80;0.70;;;23.30;80.30;;;;;;5039010;28;20462;-82
2022/05/25 07:43:38;;;;;;;0.50;0.37;;;23.10;78.10;;;;;;5039343;28;20445;-84
2022/05/25 07:46:04;;;;;;;2.63;1.70;;;22.90;80.60;;;;;;5040615;28;20441;-82
2022/05/25 07:48:31;;;;;;;0.93;0.70;;;23.40;79.70;;;;;;5042417;28;20434;-81
2022/05/25 07:51:00;;;;;;;0.50;0.30;;;22.80;80.50;;;;;;5044851;28;20462;-82
2022/05/25 07:56:11;;;;;;;0.50;0.40;;;23.90;78.20;;;;;;5046942;28;20420;-82
2022/05/25 07:58:38;;;;;;;0.50;0.50;;;24.00;75.00;;;;;;5045272;28;20442;-82
2022/05/25 08:01:15;;;;;;;0.50;0.30;;;24.60;73.70;;;;;;5050587;28;20462;-78
2022/05/25 08:06:28;;;;;;;0.50;0.40;;;23.80;72.10;;;;;;5047596;28;20938;-83
2022/05/25 08:08:56;;;;;;;0.50;0.30;;;23.50;73.30;;;;;;5046666;28;20449;-82
2022/05/25 08:11:23;;;;;;;0.60;0.40;;;24.50;73.60;;;;;;5049454;28;20534;-81
2022/05/25 08:13:53;;;;;;;0.50;0.40;;;24.60;69.80;;;;;;5048080;28;20434;-80
2022/05/25 08:16:20;;;;;;;0.60;0.40;;;24.30;70.90;;;;;;5044976;28;20445;-83
2022/05/25 08:18:47;;;;;;;0.50;0.30;;;24.60;70.60;;;;;;5036377;28;20438;-83
2022/05/25 08:21:14;;;;;;;0.63;0.50;;;25.70;70.80;;;;;;5037630;28;20491;-83
2022/05/25 08:23:42;;;;;;;0.50;0.30;;;26.70;68.50;;;;;;5037902;28;20950;-82
2022/05/25 08:26:09;;;;;;;0.93;0.60;;;27.20;62.40;;;;;;5036647;28;20442;-83
2022/05/25 08:28:36;;;;;;;0.60;0.50;;;27.50;59.90;;;;;;5036230;28;20474;-82
2022/05/25 08:31:02;;;;;;;0.50;0.30;;;27.20;60.90;;;;;;5036732;28;20469;-82
2022/05/25 08:33:29;;;;;;;0.50;0.33;;;26.80;61.10;;;;;;5037452;28;20472;-83
2022/05/25 08:35:56;;;;;;;0.50;0.40;;;25.40;62.10;;;;;;5036866;28;20445;-82
2022/05/25 08:38:23;;;;;;;0.50;0.40;;;25.70;63.90;;;;;;5035722;28;20438;-83
2022/05/25 08:40:53;;;;;;;0.60;0.60;;;25.80;61.60;;;;;;5037857;28;20481;-81
2022/05/25 08:43:25;;;;;;;0.50;0.30;;;25.40;61.10;;;;;;5037943;28;20438;-84
2022/05/25 08:45:58;;;;;;;0.50;0.40;;;25.80;61.70;;;;;;5038184;28;20441;-84
2022/05/25 08:48:27;;;;;;;0.50;0.40;;;25.20;60.50;;;;;;5037370;28;20555;-84
2022/05/25 08:50:58;;;;;;;0.70;0.40;;;25.40;63.40;;;;;;5041197;28;21037;-83
2022/05/25 08:53:25;;;;;;;0.50;0.37;;;25.20;61.10;;;;;;5045975;28;20425;-83
2022/05/25 08:56:08;;;;;;;0.50;0.40;;;24.80;63.10;;;;;;5052889;28;20442;-82
2022/05/25 08:58:41;;;;;;;0.50;0.40;;;24.40;62.60;;;;;;5045040;28;20425;-82
2022/05/25 09:01:11;;;;;;;0.77;0.50;;;24.40;61.60;;;;;;5054489;28;20445;-81
2022/05/25 09:03:48;;;;;;;0.60;0.50;;;24.20;63.40;;;;;;5056336;28;20421;-82
2022/05/25 09:06:22;;;;;;;0.50;0.37;;;24.20;63.60;;;;;;5056666;28;20410;-82
2022/05/25 09:08:59;;;;;;;1.37;0.50;;;25.10;62.80;;;;;;5056432;28;20470;-81
2022/05/25 09:11:35;;;;;;;0.93;0.93;;;25.50;60.30;;;;;;5053992;28;20471;-83
2022/05/25 09:14:06;;;;;;;0.50;0.40;;;25.10;59.90;;;;;;5051633;28;20426;-84
2022/05/25 09:16:37;;;;;;;2.40;2.30;;;24.80;60.60;;;;;;5043745;28;20433;-83
2022/05/25 09:19:09;;;;;;;0.50;0.30;;;24.40;62.40;;;;;;5041845;28;20450;-82
2022/05/25 09:21:41;;;;;;;0.50;0.40;;;24.30;61.30;;;;;;5044725;28;20454;-82
2022/05/25 09:24:12;;;;;;;0.60;0.50;;;23.80;62.70;;;;;;5057677;28;20423;-82
2022/05/25 09:26:42;;;;;;;0.50;0.30;;;24.70;62.30;;;;;;5058095;28;20427;-83
2022/05/25 09:29:11;;;;;;;0.50;0.30;;;25.70;63.10;;;;;;5057131;28;20414;-83
2022/05/25 09:31:43;;;;;;;0.60;0.40;;;26.30;59.40;;;;;;5055876;28;20452;-83
2022/05/25 09:34:14;;;;;;;0.50;0.30;;;25.50;58.70;;;;;;5047954;28;20445;-84
2022/05/25 09:36:45;;;;;;;0.50;0.30;;;26.20;59.40;;;;;;5038655;28;20465;-84
2022/05/25 09:39:21;;;;;;;0.87;0.87;;;26.80;59.00;;;;;;5038178;28;20442;-84
2022/05/25 09:41:55;;;;;;;0.50;0.30;;;27.20;56.40;;;;;;5038934;28;20465;-84
2022/05/25 09:44:23;;;;;;;0.50;0.37;;;26.20;57.30;;;;;;5040673;28;20426;-83
2022/05/25 09:46:53;;;;;;;0.50;0.40;;;25.30;57.70;;;;;;5039281;28;20438;-83
2022/05/25 09:49:32;;;;;;;0.60;0.50;;;24.80;58.80;;;;;;5039044;28;20453;-84
2022/05/25 09:52:02;;;;;;;0.50;0.40;;;24.60;59.10;;;;;;5039738;28;21005;-82
2022/05/25 09:54:33;;;;;;;1.80;1.00;;;24.40;59.90;;;;;;5039475;28;20429;-83
2022/05/25 09:57:08;;;;;;;0.50;0.30;;;24.80;60.20;;;;;;5037862;28;20803;-83
2022/05/25 09:59:40;;;;;;;0.50;0.30;;;26.10;60.00;;;;;;5038464;28;20505;-83
2022/05/25 10:02:24;;;;;;;0.50;0.30;;;27.20;57.30;;;;;;5039073;28;20430;-83
2022/05/25 10:04:52;;;;;;;0.60;0.50;;;26.50;57.70;;;;;;5038163;28;20445;-83
2022/05/25 10:07:22;;;;;;;0.70;0.57;;;25.60;56.90;;;;;;5038558;28;20477;-82
2022/05/25 10:09:51;;;;;;;1.37;0.77;;;24.90;57.20;;;;;;5037253;28;20453;-83
2022/05/25 10:12:26;;;;;;;1.43;0.70;;;24.40;59.70;;;;;;5037119;28;20445;-84
2022/05/25 10:14:59;;;;;;;0.50;0.40;;;25.00;59.70;;;;;;5037147;28;20424;-82
2022/05/25 10:17:35;;;;;;;0.87;0.50;;;24.90;58.50;;;;;;5038989;28;20533;-83
2022/05/25 10:20:04;;;;;;;0.60;0.40;;;24.30;59.00;;;;;;5037085;28;20473;-84
2022/05/25 10:22:34;;;;;;;0.60;0.57;;;24.80;60.90;;;;;;5039287;28;20944;-83
2022/05/25 10:25:05;;;;;;;0.50;0.40;;;23.80;59.70;;;;;;5037324;28;20438;-83
2022/05/25 10:27:36;;;;;;;0.50;0.40;;;24.10;61.50;;;;;;5036201;28;20478;-83
2022/05/25 10:38:42;;;;;;;2.00;0.77;;;24.30;60.20;;;;;;5037687;28;20417;-83
2022/05/25 10:44:04;;;;;;;3.80;0.80;;;24.70;58.80;;;;;;5075442;28;20570;-78
2022/05/25 10:46:32;;;;;;;0.50;0.30;;;24.80;58.50;;;;;;5083689;28;20471;-77
2022/05/25 10:49:06;;;;;;;0.50;0.40;;;25.20;58.40;;;;;;5092199;28;20467;-76
2022/05/25 10:51:41;;;;;;;0.50;0.40;;;25.20;57.80;;;;;;5092546;28;20897;-78
2022/05/25 10:57:05;;;;;;;0.50;0.30;;;23.70;59.20;;;;;;5092963;28;20496;-78
2022/05/25 10:59:43;;;;;;;0.50;0.30;;;23.70;59.90;;;;;;5092376;28;20450;-77
2022/05/25 11:02:25;;;;;;;0.50;0.30;;;24.60;58.60;;;;;;5092049;28;20482;-78
2022/05/25 11:05:10;;;;;;;0.50;0.30;;;24.40;58.60;;;;;;5092541;28;20821;-77
2022/05/25 11:07:39;;;;;;;1.73;0.53;;;24.40;57.90;;;;;;5091695;28;20826;-77
2022/05/25 11:10:20;;;;;;;7.30;0.50;;;23.50;58.20;;;;;;5092710;28;20440;-77
2022/05/25 11:13:02;;;;;;;0.50;0.30;;;22.30;59.00;;;;;;5090890;28;20455;-78
2022/05/25 11:15:39;;;;;;;0.73;0.73;;;21.80;62.20;;;;;;5091934;28;20433;-77
2022/05/25 11:18:35;;;;;;;0.50;0.30;;;21.70;63.20;;;;;;5092034;28;20932;-78
2022/05/25 11:21:16;;;;;;;0.60;0.50;;;21.60;63.50;;;;;;5092006;28;20462;-77
2022/05/25 11:24:10;;;;;;;0.83;0.50;;;21.50;64.00;;;;;;5092065;28;20484;-77
2022/05/25 11:26:56;;;;;;;0.83;0.60;;;22.50;61.00;;;;;;5092205;28;20447;-78
2022/05/25 11:29:44;;;;;;;0.50;0.30;;;24.00;59.40;;;;;;5091771;28;20463;-77
2022/05/25 11:32:22;;;;;;;0.50;0.30;;;24.30;59.80;;;;;;5092133;28;20455;-78
2022/05/25 11:35:11;;;;;;;0.50;0.40;;;25.20;59.10;;;;;;5092077;28;20925;-77
2022/05/25 11:37:49;;;;;;;0.50;0.40;;;24.60;57.70;;;;;;5091582;28;20459;-76
2022/05/25 11:40:29;;;;;;;0.60;0.40;;;25.30;58.40;;;;;;5091858;28;20442;-76
2022/05/25 11:43:17;;;;;;;0.67;0.67;;;26.10;57.00;;;;;;5091635;28;20442;-78
2022/05/25 11:45:57;;;;;;;1.83;1.73;;;25.30;55.50;;;;;;5091788;28;20432;-78
2022/05/25 11:48:41;;;;;;;0.50;0.30;;;24.90;56.70;;;;;;5091146;28;20455;-78
2022/05/25 11:51:20;;;;;;;0.50;0.40;;;25.60;58.30;;;;;;5091700;28;20463;-78
2022/05/25 11:53:59;;;;;;;0.50;0.30;;;26.60;55.90;;;;;;5091965;28;20438;-77
2022/05/25 11:56:42;;;;;;;1.77;1.67;;;24.90;56.00;;;;;;5091463;28;20785;-78
2022/05/25 11:59:25;;;;;;;0.50;0.37;;;24.60;57.10;;;;;;5091447;28;20978;-77
2022/05/25 12:01:57;;;;;;;0.50;0.40;;;23.20;58.50;;;;;;5091469;28;20470;-78
2022/05/25 12:04:54;;;;;;;0.53;0.43;;;23.60;59.90;;;;;;5091344;28;20473;-78
2022/05/25 12:07:36;;;;;;;0.80;0.50;;;23.30;58.80;;;;;;5091104;28;20461;-77
2022/05/25 12:10:19;;;;;;;0.50;0.30;;;23.70;58.90;;;;;;5091743;28;20420;-77
2022/05/25 12:12:53;;;;;;;0.50;0.30;;;24.10;59.40;;;;;;5091543;28;20662;-77
2022/05/25 12:15:24;;;;;;;0.50;0.33;;;24.60;58.60;;;;;;5091395;28;20435;-77
2022/05/25 12:18:15;;;;;;;0.50;0.40;;;24.60;56.60;;;;;;5091644;28;20423;-76
2022/05/25 12:20:50;;;;;;;0.50;0.30;;;24.60;57.70;;;;;;5088936;28;20500;-79
2022/05/25 12:23:21;;;;;;;0.50;0.33;;;24.30;56.50;;;;;;5092868;28;20423;-77
2022/05/25 12:25:53;;;;;;;0.50;0.43;;;24.10;58.00;;;;;;5096427;28;20489;-78
2022/05/25 12:28:20;;;;;;;1.73;1.63;;;24.80;56.40;;;;;;5095850;28;20964;-78
2022/05/25 12:30:48;;;;;;;0.50;0.40;;;24.90;55.90;;;;;;5095331;28;20482;-77
2022/05/25 12:33:19;;;;;;;1.10;0.40;;;24.30;55.30;;;;;;5095392;28;20446;-76
2022/05/25 12:35:49;;;;;;;0.50;0.33;;;23.20;56.60;;;;;;5096243;28;20526;-80
2022/05/25 12:38:18;;;;;;;0.50;0.40;;;22.60;59.40;;;;;;5095810;28;20461;-79
2022/05/25 12:40:47;;;;;;;0.70;0.50;;;22.20;59.00;;;;;;5095638;28;20552;-78
2022/05/25 12:43:49;;;;;;;0.50;0.30;;;21.90;60.10;;;;;;5096038;28;20431;-79
2022/05/25 12:49:08;;;;;;;0.50;0.40;;;22.40;59.60;;;;;;5095742;28;20469;-78
2022/05/25 12:51:39;;;;;;;0.60;0.40;;;22.20;60.40;;;;;;5095736;28;20458;-78
2022/05/25 12:54:20;;;;;;;0.50;0.40;;;21.60;61.10;;;;;;5095753;28;20435;-78
2022/05/25 12:56:49;;;;;;;0.60;0.50;;;21.10;62.10;;;;;;5094861;28;20450;-78
2022/05/25 12:59:30;;;;;;;0.50;0.30;;;20.60;63.10;;;;;;5095566;28;20427;-77
2022/05/25 13:02:22;;;;;;;0.60;0.40;;;20.30;64.00;;;;;;5094820;28;20451;-79
2022/05/25 13:04:50;;;;;;;0.77;0.60;;;20.10;64.20;;;;;;5095181;28;20434;-78
2022/05/25 13:07:37;;;;;;;0.70;0.70;;;20.00;65.00;;;;;;5094904;28;20789;-78
2022/05/25 13:10:10;;;;;;;0.50;0.33;;;20.40;65.50;;;;;;5094767;28;20447;-79
2022/05/25 13:12:49;;;;;;;0.60;0.40;;;20.70;64.20;;;;;;5094913;28;20466;-78
2022/05/25 13:15:54;;;;;;;0.60;0.40;;;20.80;64.60;;;;;;5095013;28;20951;-79
2022/05/25 13:18:50;;;;;;;0.50;0.40;;;21.60;64.60;;;;;;5094923;28;20430;-79
2022/05/25 13:21:39;;;;;;;0.50;0.40;;;22.10;61.50;;;;;;5094597;28;20462;-78
2022/05/25 13:24:42;;;;;;;2.60;0.67;;;22.20;62.00;;;;;;5094780;28;20463;-78
2022/05/25 13:27:36;;;;;;;0.60;0.40;;;22.90;61.30;;;;;;5094524;28;20419;-78
2022/05/25 13:30:16;;;;;;;0.50;0.40;;;22.90;60.70;;;;;;5094340;28;20478;-79
2022/05/25 13:32:50;;;;;;;0.50;0.40;;;22.50;60.70;;;;;;5094407;28;20509;-79
2022/05/25 13:35:39;;;;;;;0.50;0.30;;;21.90;60.10;;;;;;5092902;28;20449;-78
2022/05/25 13:38:16;;;;;;;1.33;0.70;;;21.30;61.60;;;;;;5093816;28;20439;-78
2022/05/25 13:40:46;;;;;;;0.50;0.30;;;21.20;61.50;;;;;;5093943;28;20420;-78
2022/05/25 13:43:18;;;;;;;0.50;0.30;;;20.80;62.80;;;;;;5094612;28;20454;-78